sensor_id;sensor_type;location;lat;lon;timestamp;temperature;humidity
67005;HTU21D;53920;51.094;5.902;2022-10-16T00:00:39;15.24;76.73
67005;HTU21D;53920;51.094;5.902;2022-10-16T00:03:06;15.23;76.60
67005;HTU21D;53920;51.094;5.902;2022-10-16T00:05:33;15.22;76.55
67005;HTU21D;53920;51.094;5.902;2022-10-16T00:08:03;15.17;76.71
67005;HTU21D;53920;51.094;5.902;2022-10-16T00:10:29;15.13;76.72
67005;HTU21D;53920;51.094;5.902;2022-10-16T00:12:55;15.09;76.76
67005;HTU21D;53920;51.094;5.902;2022-10-16T00:15:21;15.03;76.89
67005;HTU21D;53920;51.094;5.902;2022-10-16T00:17:47;15.01;76.89
67005;HTU21D;53920;51.094;5.902;2022-10-16T00:20:13;14.97;77.02
67005;HTU21D;53920;51.094;5.902;2022-10-16T00:22:57;14.95;77.10
67005;HTU21D;53920;51.094;5.902;2022-10-16T00:25:23;14.94;77.16
67005;HTU21D;53920;51.094;5.902;2022-10-16T00:27:49;14.91;77.25
67005;HTU21D;53920;51.094;5.902;2022-10-16T00:30:15;14.91;77.23
67005;HTU21D;53920;51.094;5.902;2022-10-16T00:32:41;14.91;77.35
67005;HTU21D;53920;51.094;5.902;2022-10-16T00:35:07;14.89;77.40
67005;HTU21D;53920;51.094;5.902;2022-10-16T00:37:33;14.89;77.40
67005;HTU21D;53920;51.094;5.902;2022-10-16T00:39:59;14.89;77.42
67005;HTU21D;53920;51.094;5.902;2022-10-16T00:42:25;14.91;77.42
67005;HTU21D;53920;51.094;5.902;2022-10-16T00:44:57;14.91;77.41
67005;HTU21D;53920;51.094;5.902;2022-10-16T00:47:31;14.91;77.40
67005;HTU21D;53920;51.094;5.902;2022-10-16T00:50:11;14.91;77.38
67005;HTU21D;53920;51.094;5.902;2022-10-16T00:52:43;14.92;77.37
67005;HTU21D;53920;51.094;5.902;2022-10-16T00:55:10;14.91;77.34
67005;HTU21D;53920;51.094;5.902;2022-10-16T00:57:40;14.93;77.33
67005;HTU21D;53920;51.094;5.902;2022-10-16T01:00:10;14.94;77.29
67005;HTU21D;53920;51.094;5.902;2022-10-16T01:02:36;14.97;77.24
67005;HTU21D;53920;51.094;5.902;2022-10-16T01:05:04;15.00;77.10
67005;HTU21D;53920;51.094;5.902;2022-10-16T01:07:44;15.02;77.02
67005;HTU21D;53920;51.094;5.902;2022-10-16T01:10:17;14.99;77.08
67005;HTU21D;53920;51.094;5.902;2022-10-16T01:15:47;14.98;77.09
67005;HTU21D;53920;51.094;5.902;2022-10-16T01:18:23;14.96;77.11
67005;HTU21D;53920;51.094;5.902;2022-10-16T01:21:16;14.93;77.14
67005;HTU21D;53920;51.094;5.902;2022-10-16T01:32:40;14.74;77.28
67005;HTU21D;53920;51.094;5.902;2022-10-16T01:35:28;14.67;77.53
67005;HTU21D;53920;51.094;5.902;2022-10-16T01:38:00;14.64;77.47
67005;HTU21D;53920;51.094;5.902;2022-10-16T01:40:31;14.57;77.65
67005;HTU21D;53920;51.094;5.902;2022-10-16T01:43:19;14.50;77.89
67005;HTU21D;53920;51.094;5.902;2022-10-16T01:45:47;14.45;78.01
67005;HTU21D;53920;51.094;5.902;2022-10-16T01:48:17;14.41;78.12
67005;HTU21D;53920;51.094;5.902;2022-10-16T01:50:58;14.43;78.15
67005;HTU21D;53920;51.094;5.902;2022-10-16T01:53:26;14.41;78.24
67005;HTU21D;53920;51.094;5.902;2022-10-16T01:55:55;14.41;78.22
67005;HTU21D;53920;51.094;5.902;2022-10-16T01:58:25;14.41;78.25
67005;HTU21D;53920;51.094;5.902;2022-10-16T02:00:54;14.41;78.28
67005;HTU21D;53920;51.094;5.902;2022-10-16T02:03:22;14.43;78.17
67005;HTU21D;53920;51.094;5.902;2022-10-16T02:05:53;14.43;78.14
67005;HTU21D;53920;51.094;5.902;2022-10-16T02:08:22;14.47;78.05
67005;HTU21D;53920;51.094;5.902;2022-10-16T02:10:50;14.50;77.89
67005;HTU21D;53920;51.094;5.902;2022-10-16T02:13:29;14.52;77.80
67005;HTU21D;53920;51.094;5.902;2022-10-16T02:15:57;14.51;77.82
67005;HTU21D;53920;51.094;5.902;2022-10-16T02:18:23;14.50;77.85
67005;HTU21D;53920;51.094;5.902;2022-10-16T02:21:19;14.47;77.89
67005;HTU21D;53920;51.094;5.902;2022-10-16T02:23:47;14.45;77.91
67005;HTU21D;53920;51.094;5.902;2022-10-16T02:26:31;14.42;77.92
67005;HTU21D;53920;51.094;5.902;2022-10-16T02:29:04;14.41;78.01
67005;HTU21D;53920;51.094;5.902;2022-10-16T02:31:39;14.40;78.01
67005;HTU21D;53920;51.094;5.902;2022-10-16T02:34:09;14.38;78.10
67005;HTU21D;53920;51.094;5.902;2022-10-16T02:36:39;14.40;78.13
67005;HTU21D;53920;51.094;5.902;2022-10-16T02:39:07;14.41;78.16
67005;HTU21D;53920;51.094;5.902;2022-10-16T02:41:33;14.39;78.15
67005;HTU21D;53920;51.094;5.902;2022-10-16T02:43:59;14.42;78.17
67005;HTU21D;53920;51.094;5.902;2022-10-16T02:46:25;14.44;78.14
67005;HTU21D;53920;51.094;5.902;2022-10-16T02:48:51;14.49;78.02
67005;HTU21D;53920;51.094;5.902;2022-10-16T02:51:17;14.52;77.90
67005;HTU21D;53920;51.094;5.902;2022-10-16T02:53:44;14.52;77.88
67005;HTU21D;53920;51.094;5.902;2022-10-16T02:56:10;14.55;77.76
67005;HTU21D;53920;51.094;5.902;2022-10-16T02:58:36;14.56;77.67
67005;HTU21D;53920;51.094;5.902;2022-10-16T03:01:02;14.56;77.63
67005;HTU21D;53920;51.094;5.902;2022-10-16T03:03:28;14.55;77.66
67005;HTU21D;53920;51.094;5.902;2022-10-16T03:05:54;14.55;77.66
67005;HTU21D;53920;51.094;5.902;2022-10-16T03:08:20;14.57;77.60
67005;HTU21D;53920;51.094;5.902;2022-10-16T03:10:49;14.57;77.61
67005;HTU21D;53920;51.094;5.902;2022-10-16T03:13:15;14.53;77.74
67005;HTU21D;53920;51.094;5.902;2022-10-16T03:15:42;14.58;77.55
67005;HTU21D;53920;51.094;5.902;2022-10-16T03:18:08;14.58;77.44
67005;HTU21D;53920;51.094;5.902;2022-10-16T03:20:33;14.57;77.45
67005;HTU21D;53920;51.094;5.902;2022-10-16T03:23:00;14.48;77.63
67005;HTU21D;53920;51.094;5.902;2022-10-16T03:25:26;14.47;77.69
67005;HTU21D;53920;51.094;5.902;2022-10-16T03:27:52;14.41;77.83
67005;HTU21D;53920;51.094;5.902;2022-10-16T03:30:18;14.40;77.84
67005;HTU21D;53920;51.094;5.902;2022-10-16T03:32:45;14.35;78.06
67005;HTU21D;53920;51.094;5.902;2022-10-16T03:35:11;14.27;78.27
67005;HTU21D;53920;51.094;5.902;2022-10-16T03:37:37;14.26;78.32
67005;HTU21D;53920;51.094;5.902;2022-10-16T03:40:03;14.23;78.37
67005;HTU21D;53920;51.094;5.902;2022-10-16T03:42:29;14.20;78.47
67005;HTU21D;53920;51.094;5.902;2022-10-16T03:44:55;14.19;78.59
67005;HTU21D;53920;51.094;5.902;2022-10-16T03:47:21;14.18;78.59
67005;HTU21D;53920;51.094;5.902;2022-10-16T03:49:49;14.19;78.57
67005;HTU21D;53920;51.094;5.902;2022-10-16T03:52:16;14.18;78.59
67005;HTU21D;53920;51.094;5.902;2022-10-16T03:54:42;14.20;78.54
67005;HTU21D;53920;51.094;5.902;2022-10-16T03:57:08;14.20;78.53
67005;HTU21D;53920;51.094;5.902;2022-10-16T03:59:34;14.20;78.55
67005;HTU21D;53920;51.094;5.902;2022-10-16T04:02:00;14.18;78.58
67005;HTU21D;53920;51.094;5.902;2022-10-16T04:04:26;14.18;78.56
67005;HTU21D;53920;51.094;5.902;2022-10-16T04:06:52;14.14;78.66
67005;HTU21D;53920;51.094;5.902;2022-10-16T04:09:18;14.11;78.68
67005;HTU21D;53920;51.094;5.902;2022-10-16T04:11:44;14.09;78.76
67005;HTU21D;53920;51.094;5.902;2022-10-16T04:14:10;14.08;78.84
67005;HTU21D;53920;51.094;5.902;2022-10-16T04:16:36;14.07;78.86
67005;HTU21D;53920;51.094;5.902;2022-10-16T04:19:02;14.06;78.95
67005;HTU21D;53920;51.094;5.902;2022-10-16T04:21:28;14.06;78.95
67005;HTU21D;53920;51.094;5.902;2022-10-16T04:23:54;14.06;78.91
67005;HTU21D;53920;51.094;5.902;2022-10-16T04:26:20;14.09;78.84
67005;HTU21D;53920;51.094;5.902;2022-10-16T04:28:46;14.05;78.85
67005;HTU21D;53920;51.094;5.902;2022-10-16T04:31:12;14.04;78.86
67005;HTU21D;53920;51.094;5.902;2022-10-16T04:33:38;13.98;78.98
67005;HTU21D;53920;51.094;5.902;2022-10-16T04:36:04;13.94;79.11
67005;HTU21D;53920;51.094;5.902;2022-10-16T04:38:31;13.90;79.17
67005;HTU21D;53920;51.094;5.902;2022-10-16T04:40:56;13.91;79.23
67005;HTU21D;53920;51.094;5.902;2022-10-16T04:43:23;13.92;79.24
67005;HTU21D;53920;51.094;5.902;2022-10-16T04:45:48;13.93;79.18
67005;HTU21D;53920;51.094;5.902;2022-10-16T04:48:17;13.94;79.22
67005;HTU21D;53920;51.094;5.902;2022-10-16T04:50:43;13.95;79.24
67005;HTU21D;53920;51.094;5.902;2022-10-16T04:53:09;13.96;79.20
67005;HTU21D;53920;51.094;5.902;2022-10-16T04:55:35;13.98;79.16
67005;HTU21D;53920;51.094;5.902;2022-10-16T04:58:01;14.01;79.18
67005;HTU21D;53920;51.094;5.902;2022-10-16T05:00:27;14.01;79.27
67005;HTU21D;53920;51.094;5.902;2022-10-16T05:02:54;14.04;79.29
67005;HTU21D;53920;51.094;5.902;2022-10-16T05:05:20;14.06;79.26
67005;HTU21D;53920;51.094;5.902;2022-10-16T05:07:47;14.05;79.20
67005;HTU21D;53920;51.094;5.902;2022-10-16T05:10:13;14.05;79.22
67005;HTU21D;53920;51.094;5.902;2022-10-16T05:12:39;14.01;79.24
67005;HTU21D;53920;51.094;5.902;2022-10-16T05:15:05;14.03;79.35
67005;HTU21D;53920;51.094;5.902;2022-10-16T05:17:31;14.05;79.33
67005;HTU21D;53920;51.094;5.902;2022-10-16T05:19:57;14.06;79.37
67005;HTU21D;53920;51.094;5.902;2022-10-16T05:22:23;14.05;79.51
67005;HTU21D;53920;51.094;5.902;2022-10-16T05:24:49;14.06;79.54
67005;HTU21D;53920;51.094;5.902;2022-10-16T05:27:15;14.06;79.63
67005;HTU21D;53920;51.094;5.902;2022-10-16T05:29:48;14.13;79.46
67005;HTU21D;53920;51.094;5.902;2022-10-16T05:32:16;14.01;79.76
67005;HTU21D;53920;51.094;5.902;2022-10-16T05:34:43;14.00;79.84
67005;HTU21D;53920;51.094;5.902;2022-10-16T05:37:11;13.99;79.88
67005;HTU21D;53920;51.094;5.902;2022-10-16T05:39:37;13.94;80.07
67005;HTU21D;53920;51.094;5.902;2022-10-16T05:42:04;13.92;80.09
67005;HTU21D;53920;51.094;5.902;2022-10-16T05:44:30;13.89;80.13
67005;HTU21D;53920;51.094;5.902;2022-10-16T05:46:56;13.86;80.17
67005;HTU21D;53920;51.094;5.902;2022-10-16T05:49:22;13.84;80.27
67005;HTU21D;53920;51.094;5.902;2022-10-16T05:51:48;13.82;80.35
67005;HTU21D;53920;51.094;5.902;2022-10-16T05:54:14;13.83;80.42
67005;HTU21D;53920;51.094;5.902;2022-10-16T05:56:40;13.85;80.42
67005;HTU21D;53920;51.094;5.902;2022-10-16T05:59:09;13.89;80.39
67005;HTU21D;53920;51.094;5.902;2022-10-16T06:01:35;13.89;80.37
67005;HTU21D;53920;51.094;5.902;2022-10-16T06:04:02;13.91;80.29
67005;HTU21D;53920;51.094;5.902;2022-10-16T06:06:29;13.91;80.28
67005;HTU21D;53920;51.094;5.902;2022-10-16T06:08:57;13.89;80.34
67005;HTU21D;53920;51.094;5.902;2022-10-16T06:11:26;13.88;80.36
67005;HTU21D;53920;51.094;5.902;2022-10-16T06:13:54;13.92;80.31
67005;HTU21D;53920;51.094;5.902;2022-10-16T06:16:23;13.95;80.23
67005;HTU21D;53920;51.094;5.902;2022-10-16T06:18:54;13.98;80.13
67005;HTU21D;53920;51.094;5.902;2022-10-16T06:21:24;13.98;80.07
67005;HTU21D;53920;51.094;5.902;2022-10-16T06:23:56;13.98;80.07
67005;HTU21D;53920;51.094;5.902;2022-10-16T06:26:26;14.01;80.16
67005;HTU21D;53920;51.094;5.902;2022-10-16T06:28:54;14.04;80.10
67005;HTU21D;53920;51.094;5.902;2022-10-16T06:31:21;14.09;80.07
67005;HTU21D;53920;51.094;5.902;2022-10-16T06:33:51;14.14;79.98
67005;HTU21D;53920;51.094;5.902;2022-10-16T06:36:17;14.21;79.88
67005;HTU21D;53920;51.094;5.902;2022-10-16T06:38:44;14.25;79.69
67005;HTU21D;53920;51.094;5.902;2022-10-16T06:41:16;14.27;79.66
67005;HTU21D;53920;51.094;5.902;2022-10-16T06:43:43;14.29;79.53
67005;HTU21D;53920;51.094;5.902;2022-10-16T06:46:14;14.27;79.60
67005;HTU21D;53920;51.094;5.902;2022-10-16T06:48:41;14.32;79.45
67005;HTU21D;53920;51.094;5.902;2022-10-16T06:51:12;14.34;79.38
67005;HTU21D;53920;51.094;5.902;2022-10-16T06:53:41;14.30;79.39
67005;HTU21D;53920;51.094;5.902;2022-10-16T06:56:09;14.27;79.42
67005;HTU21D;53920;51.094;5.902;2022-10-16T06:58:36;14.27;79.42
67005;HTU21D;53920;51.094;5.902;2022-10-16T07:01:02;14.32;79.35
67005;HTU21D;53920;51.094;5.902;2022-10-16T07:03:28;14.34;79.28
67005;HTU21D;53920;51.094;5.902;2022-10-16T07:05:54;14.38;79.21
67005;HTU21D;53920;51.094;5.902;2022-10-16T07:08:20;14.40;79.10
67005;HTU21D;53920;51.094;5.902;2022-10-16T07:10:46;14.41;79.04
67005;HTU21D;53920;51.094;5.902;2022-10-16T07:13:13;14.42;78.99
67005;HTU21D;53920;51.094;5.902;2022-10-16T07:15:40;14.41;78.92
67005;HTU21D;53920;51.094;5.902;2022-10-16T07:18:07;14.43;78.87
67005;HTU21D;53920;51.094;5.902;2022-10-16T07:20:33;14.43;78.89
67005;HTU21D;53920;51.094;5.902;2022-10-16T07:22:59;14.44;78.87
67005;HTU21D;53920;51.094;5.902;2022-10-16T07:25:25;14.51;78.82
67005;HTU21D;53920;51.094;5.902;2022-10-16T07:27:51;14.59;78.85
67005;HTU21D;53920;51.094;5.902;2022-10-16T07:30:17;14.77;78.49
67005;HTU21D;53920;51.094;5.902;2022-10-16T07:32:46;14.86;78.47
67005;HTU21D;53920;51.094;5.902;2022-10-16T07:35:12;15.03;78.18
67005;HTU21D;53920;51.094;5.902;2022-10-16T07:37:38;15.22;77.85
67005;HTU21D;53920;51.094;5.902;2022-10-16T07:40:05;15.41;77.55
67005;HTU21D;53920;51.094;5.902;2022-10-16T07:42:31;15.62;77.13
67005;HTU21D;53920;51.094;5.902;2022-10-16T07:44:57;15.81;76.50
67005;HTU21D;53920;51.094;5.902;2022-10-16T07:47:23;16.00;76.00
67005;HTU21D;53920;51.094;5.902;2022-10-16T07:49:49;16.20;75.24
67005;HTU21D;53920;51.094;5.902;2022-10-16T07:52:15;16.41;74.53
67005;HTU21D;53920;51.094;5.902;2022-10-16T07:54:41;16.56;74.18
67005;HTU21D;53920;51.094;5.902;2022-10-16T07:57:07;16.81;73.32
67005;HTU21D;53920;51.094;5.902;2022-10-16T07:59:33;17.07;72.39
67005;HTU21D;53920;51.094;5.902;2022-10-16T08:01:59;17.28;71.48
67005;HTU21D;53920;51.094;5.902;2022-10-16T08:04:25;17.41;71.00
67005;HTU21D;53920;51.094;5.902;2022-10-16T08:06:50;17.66;69.95
67005;HTU21D;53920;51.094;5.902;2022-10-16T08:09:16;17.83;69.07
67005;HTU21D;53920;51.094;5.902;2022-10-16T08:11:42;17.97;68.26
67005;HTU21D;53920;51.094;5.902;2022-10-16T08:14:08;18.12;67.76
67005;HTU21D;53920;51.094;5.902;2022-10-16T08:16:34;18.32;67.04
67005;HTU21D;53920;51.094;5.902;2022-10-16T08:19:00;18.46;66.21
67005;HTU21D;53920;51.094;5.902;2022-10-16T08:21:26;18.59;65.76
67005;HTU21D;53920;51.094;5.902;2022-10-16T08:23:53;18.70;64.99
67005;HTU21D;53920;51.094;5.902;2022-10-16T08:26:20;18.80;64.79
67005;HTU21D;53920;51.094;5.902;2022-10-16T08:28:49;18.97;64.51
67005;HTU21D;53920;51.094;5.902;2022-10-16T08:31:16;19.14;63.81
67005;HTU21D;53920;51.094;5.902;2022-10-16T08:33:44;19.36;63.67
67005;HTU21D;53920;51.094;5.902;2022-10-16T08:36:13;20.45;60.23
67005;HTU21D;53920;51.094;5.902;2022-10-16T08:38:40;22.49;54.04
67005;HTU21D;53920;51.094;5.902;2022-10-16T08:47:17;26.68;42.69
67005;HTU21D;53920;51.094;5.902;2022-10-16T08:50:00;27.57;40.39
67005;HTU21D;53920;51.094;5.902;2022-10-16T08:52:33;27.96;39.35
67005;HTU21D;53920;51.094;5.902;2022-10-16T08:55:01;27.89;39.47
67005;HTU21D;53920;51.094;5.902;2022-10-16T08:57:27;28.01;39.10
67005;HTU21D;53920;51.094;5.902;2022-10-16T09:00:00;28.44;38.00
67005;HTU21D;53920;51.094;5.902;2022-10-16T09:11:27;29.45;35.36
67005;HTU21D;53920;51.094;5.902;2022-10-16T09:16:52;29.95;33.75
67005;HTU21D;53920;51.094;5.902;2022-10-16T09:19:31;30.11;33.28
67005;HTU21D;53920;51.094;5.902;2022-10-16T09:22:04;29.73;33.74
67005;HTU21D;53920;51.094;5.902;2022-10-16T09:24:37;29.67;33.93
67005;HTU21D;53920;51.094;5.902;2022-10-16T09:27:03;29.62;33.86
67005;HTU21D;53920;51.094;5.902;2022-10-16T09:29:29;29.86;33.18
67005;HTU21D;53920;51.094;5.902;2022-10-16T09:32:10;30.51;32.41
67005;HTU21D;53920;51.094;5.902;2022-10-16T09:34:42;30.84;31.47
67005;HTU21D;53920;51.094;5.902;2022-10-16T09:37:13;31.52;30.38
67005;HTU21D;53920;51.094;5.902;2022-10-16T09:39:51;32.14;29.03
67005;HTU21D;53920;51.094;5.902;2022-10-16T09:42:26;32.58;28.42
67005;HTU21D;53920;51.094;5.902;2022-10-16T09:44:53;33.12;27.68
67005;HTU21D;53920;51.094;5.902;2022-10-16T09:47:30;33.31;26.94
67005;HTU21D;53920;51.094;5.902;2022-10-16T09:49:59;32.82;27.55
67005;HTU21D;53920;51.094;5.902;2022-10-16T09:52:29;32.61;27.55
67005;HTU21D;53920;51.094;5.902;2022-10-16T09:54:58;31.83;28.79
67005;HTU21D;53920;51.094;5.902;2022-10-16T09:57:24;31.30;29.22
67005;HTU21D;53920;51.094;5.902;2022-10-16T09:59:53;31.10;29.95
67005;HTU21D;53920;51.094;5.902;2022-10-16T10:02:39;31.00;29.93
67005;HTU21D;53920;51.094;5.902;2022-10-16T10:05:18;31.04;29.72
67005;HTU21D;53920;51.094;5.902;2022-10-16T10:07:45;31.46;29.07
67005;HTU21D;53920;51.094;5.902;2022-10-16T10:10:29;31.58;28.81
67005;HTU21D;53920;51.094;5.902;2022-10-16T10:12:56;31.46;28.84
67005;HTU21D;53920;51.094;5.902;2022-10-16T10:15:24;31.85;28.23
67005;HTU21D;53920;51.094;5.902;2022-10-16T10:17:54;32.24;27.59
67005;HTU21D;53920;51.094;5.902;2022-10-16T10:20:22;32.75;26.90
67005;HTU21D;53920;51.094;5.902;2022-10-16T10:22:48;33.28;25.73
67005;HTU21D;53920;51.094;5.902;2022-10-16T10:25:26;32.82;26.36
67005;HTU21D;53920;51.094;5.902;2022-10-16T10:34:27;29.24;31.79
67005;HTU21D;53920;51.094;5.902;2022-10-16T10:40:14;27.75;34.77
67005;HTU21D;53920;51.094;5.902;2022-10-16T10:45:54;27.09;36.34
67005;HTU21D;53920;51.094;5.902;2022-10-16T10:51:08;26.23;38.08
67005;HTU21D;53920;51.094;5.902;2022-10-16T10:53:56;25.44;39.78
67005;HTU21D;53920;51.094;5.902;2022-10-16T10:56:56;24.76;41.52
67005;HTU21D;53920;51.094;5.902;2022-10-16T11:02:31;24.27;42.95
67005;HTU21D;53920;51.094;5.902;2022-10-16T11:05:17;24.18;43.31
67005;HTU21D;53920;51.094;5.902;2022-10-16T11:10:32;23.56;44.58
67005;HTU21D;53920;51.094;5.902;2022-10-16T11:13:17;23.11;45.47
67005;HTU21D;53920;51.094;5.902;2022-10-16T11:15:49;23.01;46.15
67005;HTU21D;53920;51.094;5.902;2022-10-16T11:18:27;23.40;45.48
67005;HTU21D;53920;51.094;5.902;2022-10-16T11:21:06;23.73;45.08
67005;HTU21D;53920;51.094;5.902;2022-10-16T11:26:25;23.71;44.99
67005;HTU21D;53920;51.094;5.902;2022-10-16T11:28:54;23.88;44.83
67005;HTU21D;53920;51.094;5.902;2022-10-16T11:39:31;24.31;44.16
67005;HTU21D;53920;51.094;5.902;2022-10-16T11:42:10;24.18;44.09
67005;HTU21D;53920;51.094;5.902;2022-10-16T11:47:48;24.19;44.07
67005;HTU21D;53920;51.094;5.902;2022-10-16T11:55:32;24.02;45.02
67005;HTU21D;53920;51.094;5.902;2022-10-16T11:58:07;24.15;44.38
67005;HTU21D;53920;51.094;5.902;2022-10-16T12:08:53;24.13;43.80
67005;HTU21D;53920;51.094;5.902;2022-10-16T12:16:39;24.12;44.38
67005;HTU21D;53920;51.094;5.902;2022-10-16T12:19:17;24.28;44.33
67005;HTU21D;53920;51.094;5.902;2022-10-16T12:21:45;24.05;44.92
67005;HTU21D;53920;51.094;5.902;2022-10-16T12:27:00;23.24;45.92
67005;HTU21D;53920;51.094;5.902;2022-10-16T12:29:38;23.10;46.71
67005;HTU21D;53920;51.094;5.902;2022-10-16T12:32:41;23.30;46.83
67005;HTU21D;53920;51.094;5.902;2022-10-16T12:35:22;23.51;45.39
67005;HTU21D;53920;51.094;5.902;2022-10-16T12:37:51;23.58;45.19
67005;HTU21D;53920;51.094;5.902;2022-10-16T12:40:32;23.66;44.85
67005;HTU21D;53920;51.094;5.902;2022-10-16T12:42:59;23.71;44.91
67005;HTU21D;53920;51.094;5.902;2022-10-16T12:45:28;23.81;45.17
67005;HTU21D;53920;51.094;5.902;2022-10-16T12:47:55;23.92;45.09
67005;HTU21D;53920;51.094;5.902;2022-10-16T12:50:26;23.76;44.62
67005;HTU21D;53920;51.094;5.902;2022-10-16T12:52:52;23.45;45.21
67005;HTU21D;53920;51.094;5.902;2022-10-16T12:55:20;23.49;46.45
67005;HTU21D;53920;51.094;5.902;2022-10-16T13:04:10;24.36;43.64
67005;HTU21D;53920;51.094;5.902;2022-10-16T13:12:07;24.45;42.90
67005;HTU21D;53920;51.094;5.902;2022-10-16T13:14:43;24.36;43.02
67005;HTU21D;53920;51.094;5.902;2022-10-16T13:17:25;24.19;43.07
67005;HTU21D;53920;51.094;5.902;2022-10-16T13:27:54;24.14;43.45
67005;HTU21D;53920;51.094;5.902;2022-10-16T13:30:27;24.25;42.97
67005;HTU21D;53920;51.094;5.902;2022-10-16T13:35:26;23.74;43.73
67005;HTU21D;53920;51.094;5.902;2022-10-16T13:38:14;23.42;44.69
67005;HTU21D;53920;51.094;5.902;2022-10-16T13:40:58;23.21;46.30
67005;HTU21D;53920;51.094;5.902;2022-10-16T13:43:33;23.11;47.79
67005;HTU21D;53920;51.094;5.902;2022-10-16T13:46:21;23.13;47.60
67005;HTU21D;53920;51.094;5.902;2022-10-16T13:49:10;23.12;47.01
67005;HTU21D;53920;51.094;5.902;2022-10-16T13:51:37;23.03;47.02
67005;HTU21D;53920;51.094;5.902;2022-10-16T13:54:03;23.02;47.69
67005;HTU21D;53920;51.094;5.902;2022-10-16T13:56:32;23.07;47.80
67005;HTU21D;53920;51.094;5.902;2022-10-16T13:59:22;23.09;49.02
67005;HTU21D;53920;51.094;5.902;2022-10-16T14:01:51;23.03;48.16
67005;HTU21D;53920;51.094;5.902;2022-10-16T14:04:20;22.97;47.12
67005;HTU21D;53920;51.094;5.902;2022-10-16T14:06:50;22.84;48.66
67005;HTU21D;53920;51.094;5.902;2022-10-16T14:09:21;22.77;48.22
67005;HTU21D;53920;51.094;5.902;2022-10-16T14:11:57;22.80;49.25
67005;HTU21D;53920;51.094;5.902;2022-10-16T14:14:35;22.80;51.19
67005;HTU21D;53920;51.094;5.902;2022-10-16T14:17:03;22.69;52.79
67005;HTU21D;53920;51.094;5.902;2022-10-16T14:19:30;22.55;53.22
67005;HTU21D;53920;51.094;5.902;2022-10-16T14:21:59;22.47;52.49
67005;HTU21D;53920;51.094;5.902;2022-10-16T14:24:33;22.39;53.08
67005;HTU21D;53920;51.094;5.902;2022-10-16T14:27:00;22.25;54.49
67005;HTU21D;53920;51.094;5.902;2022-10-16T14:29:29;22.13;54.98
67005;HTU21D;53920;51.094;5.902;2022-10-16T14:32:04;22.07;55.10
67005;HTU21D;53920;51.094;5.902;2022-10-16T14:34:36;22.02;55.44
67005;HTU21D;53920;51.094;5.902;2022-10-16T14:37:14;21.89;55.54
67005;HTU21D;53920;51.094;5.902;2022-10-16T14:39:49;21.67;55.64
67005;HTU21D;53920;51.094;5.902;2022-10-16T14:42:18;21.51;56.37
67005;HTU21D;53920;51.094;5.902;2022-10-16T14:44:47;21.44;56.60
67005;HTU21D;53920;51.094;5.902;2022-10-16T14:47:17;21.39;56.46
67005;HTU21D;53920;51.094;5.902;2022-10-16T14:49:48;21.36;56.83
67005;HTU21D;53920;51.094;5.902;2022-10-16T14:52:14;21.29;57.50
67005;HTU21D;53920;51.094;5.902;2022-10-16T14:54:40;21.23;58.50
67005;HTU21D;53920;51.094;5.902;2022-10-16T14:57:18;21.20;58.98
67005;HTU21D;53920;51.094;5.902;2022-10-16T14:59:46;21.17;59.59
67005;HTU21D;53920;51.094;5.902;2022-10-16T15:04:44;21.08;60.18
67005;HTU21D;53920;51.094;5.902;2022-10-16T15:07:10;21.03;60.50
67005;HTU21D;53920;51.094;5.902;2022-10-16T15:09:36;20.95;61.02
67005;HTU21D;53920;51.094;5.902;2022-10-16T15:12:02;20.88;61.18
67005;HTU21D;53920;51.094;5.902;2022-10-16T15:14:28;20.79;62.12
67005;HTU21D;53920;51.094;5.902;2022-10-16T15:16:54;20.77;61.93
67005;HTU21D;53920;51.094;5.902;2022-10-16T15:19:22;20.73;62.20
67005;HTU21D;53920;51.094;5.902;2022-10-16T15:21:48;20.64;62.82
67005;HTU21D;53920;51.094;5.902;2022-10-16T15:24:15;20.56;63.20
67005;HTU21D;53920;51.094;5.902;2022-10-16T15:26:41;20.48;63.91
67005;HTU21D;53920;51.094;5.902;2022-10-16T15:29:07;20.43;63.91
67005;HTU21D;53920;51.094;5.902;2022-10-16T15:31:34;20.42;63.56
67005;HTU21D;53920;51.094;5.902;2022-10-16T15:33:59;20.36;63.95
67005;HTU21D;53920;51.094;5.902;2022-10-16T15:36:35;20.29;64.59
67005;HTU21D;53920;51.094;5.902;2022-10-16T15:39:28;20.27;64.56
67005;HTU21D;53920;51.094;5.902;2022-10-16T15:41:54;20.24;64.44
67005;HTU21D;53920;51.094;5.902;2022-10-16T15:44:21;20.21;64.59
67005;HTU21D;53920;51.094;5.902;2022-10-16T15:46:48;20.19;64.35
67005;HTU21D;53920;51.094;5.902;2022-10-16T15:49:14;20.12;64.39
67005;HTU21D;53920;51.094;5.902;2022-10-16T15:51:42;20.03;64.79
67005;HTU21D;53920;51.094;5.902;2022-10-16T15:54:08;19.97;65.44
67005;HTU21D;53920;51.094;5.902;2022-10-16T15:56:34;19.86;65.94
67005;HTU21D;53920;51.094;5.902;2022-10-16T15:59:02;19.80;66.14
67005;HTU21D;53920;51.094;5.902;2022-10-16T16:01:33;19.70;66.26
67005;HTU21D;53920;51.094;5.902;2022-10-16T16:03:59;19.65;66.03
67005;HTU21D;53920;51.094;5.902;2022-10-16T16:06:25;19.61;65.72
67005;HTU21D;53920;51.094;5.902;2022-10-16T16:08:52;19.54;66.18
67005;HTU21D;53920;51.094;5.902;2022-10-16T16:11:19;19.44;66.59
67005;HTU21D;53920;51.094;5.902;2022-10-16T16:13:45;19.37;66.59
67005;HTU21D;53920;51.094;5.902;2022-10-16T16:16:15;19.27;66.86
67005;HTU21D;53920;51.094;5.902;2022-10-16T16:18:42;19.18;67.44
67005;HTU21D;53920;51.094;5.902;2022-10-16T16:21:11;19.06;67.94
67005;HTU21D;53920;51.094;5.902;2022-10-16T16:23:37;18.97;68.54
67005;HTU21D;53920;51.094;5.902;2022-10-16T16:26:07;18.92;68.81
67005;HTU21D;53920;51.094;5.902;2022-10-16T16:28:36;18.87;68.62
67005;HTU21D;53920;51.094;5.902;2022-10-16T16:31:03;18.83;68.80
67005;HTU21D;53920;51.094;5.902;2022-10-16T16:33:29;18.76;68.99
67005;HTU21D;53920;51.094;5.902;2022-10-16T16:35:58;18.70;69.12
67005;HTU21D;53920;51.094;5.902;2022-10-16T16:38:25;18.65;69.18
67005;HTU21D;53920;51.094;5.902;2022-10-16T16:40:51;18.59;69.16
67005;HTU21D;53920;51.094;5.902;2022-10-16T16:43:18;18.51;69.17
67005;HTU21D;53920;51.094;5.902;2022-10-16T16:45:45;18.48;69.41
67005;HTU21D;53920;51.094;5.902;2022-10-16T16:48:11;18.41;69.47
67005;HTU21D;53920;51.094;5.902;2022-10-16T16:50:37;18.38;69.55
67005;HTU21D;53920;51.094;5.902;2022-10-16T16:53:03;18.36;69.69
67005;HTU21D;53920;51.094;5.902;2022-10-16T16:55:29;18.36;69.49
67005;HTU21D;53920;51.094;5.902;2022-10-16T16:57:55;18.33;69.61
67005;HTU21D;53920;51.094;5.902;2022-10-16T17:00:22;18.29;69.46
67005;HTU21D;53920;51.094;5.902;2022-10-16T17:02:49;18.27;69.48
67005;HTU21D;53920;51.094;5.902;2022-10-16T17:05:15;18.20;69.57
67005;HTU21D;53920;51.094;5.902;2022-10-16T17:07:41;18.18;69.68
67005;HTU21D;53920;51.094;5.902;2022-10-16T17:10:08;18.17;69.67
67005;HTU21D;53920;51.094;5.902;2022-10-16T17:12:35;18.14;69.39
67005;HTU21D;53920;51.094;5.902;2022-10-16T17:15:01;18.11;69.25
67005;HTU21D;53920;51.094;5.902;2022-10-16T17:17:27;18.09;69.36
67005;HTU21D;53920;51.094;5.902;2022-10-16T17:19:53;18.08;69.63